WZZ77K LQTZ-EDJA
Flight info
| Callsign | WZZ77K |
|---|---|
| Flight time | 1h 13m |
| Altitude | 36000 |
| Route | DER DCT GUBOK DCT MOSAV DCT ERKIR L608 KPT KPT1D |
| Aircraft | A320/M-SDE3FGHIRWY/LB1 |
Departure
| Time | 2026-05-07 10:22 |
|---|---|
| Airport | Tuzla International Airport (LQTZ) |
Arrival
| Time | 2026-05-07 11:35 |
|---|---|
| Airport | Memmingen Allgau Airport (EDJA) |
| Time | Latitude | Longitude | Altitude | Speed | Heading |
|---|---|---|---|---|---|
| 2026-05-07 10:04 | 44.46323 | 18.71029 | 780 ft | 0 kts | 272° |
| 2026-05-07 10:19 | 44.46321 | 18.71024 | 780 ft | 2 kts | 245° |
| 2026-05-07 10:19 | 44.46300 | 18.70981 | 780 ft | 8 kts | 224° |
| 2026-05-07 10:19 | 44.46220 | 18.70952 | 779 ft | 15 kts | 191° |
| 2026-05-07 10:20 | 44.46094 | 18.70924 | 779 ft | 19 kts | 187° |
| 2026-05-07 10:20 | 44.45997 | 18.70955 | 778 ft | 15 kts | 142° |
| 2026-05-07 10:20 | 44.45978 | 18.71025 | 779 ft | 0 kts | 96° |
| 2026-05-07 10:21 | 44.45963 | 18.71220 | 778 ft | 55 kts | 96° |
| 2026-05-07 10:21 | 44.45897 | 18.72054 | 786 ft | 114 kts | 96° |
| 2026-05-07 10:21 | 44.45792 | 18.73366 | 813 ft | 154 kts | 100° |
| 2026-05-07 10:22 | 44.45651 | 18.74879 | 1316 ft | 160 kts | 101° |
| 2026-05-07 10:22 | 44.45494 | 18.76475 | 1753 ft | 174 kts | 99° |
| 2026-05-07 10:22 | 44.45354 | 18.78265 | 1974 ft | 194 kts | 98° |
| 2026-05-07 10:22 | 44.45206 | 18.80258 | 2165 ft | 217 kts | 97° |
| 2026-05-07 10:23 | 44.45043 | 18.82440 | 2499 ft | 241 kts | 97° |
| 2026-05-07 10:23 | 44.44861 | 18.84839 | 3151 ft | 254 kts | 98° |
| 2026-05-07 10:23 | 44.44918 | 18.87342 | 3907 ft | 265 kts | 73° |
| 2026-05-07 10:23 | 44.45950 | 18.89482 | 4685 ft | 271 kts | 36° |
| 2026-05-07 10:24 | 44.47666 | 18.90433 | 5516 ft | 269 kts | 0° |
| 2026-05-07 10:24 | 44.49476 | 18.89922 | 6381 ft | 265 kts | 333° |
| 2026-05-07 10:24 | 44.51076 | 18.88613 | 7222 ft | 266 kts | 323° |
| 2026-05-07 10:24 | 44.52588 | 18.87094 | 8005 ft | 270 kts | 321° |
| 2026-05-07 10:25 | 44.54112 | 18.85504 | 8666 ft | 279 kts | 316° |
| 2026-05-07 10:25 | 44.55365 | 18.83372 | 9304 ft | 286 kts | 303° |
| 2026-05-07 10:25 | 44.56524 | 18.81117 | 10034 ft | 291 kts | 303° |
| 2026-05-07 10:25 | 44.57730 | 18.78761 | 10479 ft | 308 kts | 303° |
| 2026-05-07 10:26 | 44.59022 | 18.76229 | 10728 ft | 329 kts | 303° |
| 2026-05-07 10:26 | 44.60375 | 18.73576 | 11286 ft | 337 kts | 303° |
| 2026-05-07 10:26 | 44.61750 | 18.70885 | 11949 ft | 341 kts | 303° |
| 2026-05-07 10:26 | 44.63143 | 18.68165 | 12624 ft | 345 kts | 303° |
| 2026-05-07 10:27 | 44.64550 | 18.65425 | 13304 ft | 347 kts | 303° |
| 2026-05-07 10:27 | 44.65971 | 18.62653 | 13945 ft | 351 kts | 303° |
| 2026-05-07 10:27 | 44.67396 | 18.59859 | 14531 ft | 354 kts | 303° |
| 2026-05-07 10:27 | 44.68836 | 18.57029 | 15106 ft | 357 kts | 302° |
| 2026-05-07 10:28 | 44.70286 | 18.54183 | 15675 ft | 360 kts | 302° |
| 2026-05-07 10:28 | 44.71751 | 18.51300 | 16251 ft | 363 kts | 302° |
| 2026-05-07 10:28 | 44.73221 | 18.48401 | 16818 ft | 366 kts | 302° |
| 2026-05-07 10:28 | 44.74707 | 18.45472 | 17388 ft | 369 kts | 302° |
| 2026-05-07 10:29 | 44.76203 | 18.42522 | 17955 ft | 372 kts | 302° |
| 2026-05-07 10:29 | 44.77697 | 18.39576 | 18474 ft | 376 kts | 302° |
| 2026-05-07 10:29 | 44.79220 | 18.36568 | 18982 ft | 378 kts | 302° |
| 2026-05-07 10:30 | 44.82286 | 18.30491 | 20017 ft | 383 kts | 302° |
| 2026-05-07 10:30 | 44.83833 | 18.27419 | 20566 ft | 385 kts | 302° |
| 2026-05-07 10:30 | 44.85387 | 18.24330 | 21047 ft | 387 kts | 301° |
| 2026-05-07 10:30 | 44.86948 | 18.21231 | 21529 ft | 389 kts | 302° |
| 2026-05-07 10:31 | 44.88518 | 18.18112 | 22038 ft | 391 kts | 301° |
| 2026-05-07 10:31 | 44.90096 | 18.14972 | 22472 ft | 394 kts | 301° |
| 2026-05-07 10:31 | 44.91680 | 18.11815 | 22934 ft | 396 kts | 301° |
| 2026-05-07 10:31 | 44.93279 | 18.08622 | 23371 ft | 399 kts | 301° |
| 2026-05-07 10:32 | 44.94884 | 18.05413 | 23803 ft | 402 kts | 301° |
| 2026-05-07 10:32 | 44.96498 | 18.02183 | 24197 ft | 404 kts | 301° |
| 2026-05-07 10:32 | 44.98123 | 17.98932 | 24587 ft | 406 kts | 301° |
| 2026-05-07 10:32 | 44.99747 | 17.95679 | 24970 ft | 407 kts | 300° |
| 2026-05-07 10:33 | 45.01386 | 17.92386 | 25355 ft | 409 kts | 300° |
| 2026-05-07 10:33 | 45.03027 | 17.89085 | 25739 ft | 411 kts | 300° |
| 2026-05-07 10:33 | 45.04677 | 17.85771 | 26151 ft | 413 kts | 301° |
| 2026-05-07 10:33 | 45.06373 | 17.82542 | 26544 ft | 415 kts | 302° |
| 2026-05-07 10:34 | 45.08164 | 17.79323 | 26919 ft | 417 kts | 303° |
| 2026-05-07 10:34 | 45.10000 | 17.76119 | 27288 ft | 420 kts | 304° |
| 2026-05-07 10:34 | 45.11846 | 17.72916 | 27648 ft | 421 kts | 303° |
| 2026-05-07 10:34 | 45.13074 | 17.70777 | 27895 ft | 422 kts | 303° |
| 2026-05-07 10:35 | 45.14947 | 17.67487 | 28271 ft | 424 kts | 303° |
| 2026-05-07 10:35 | 45.16770 | 17.64252 | 28627 ft | 426 kts | 303° |
| 2026-05-07 10:35 | 45.18612 | 17.60953 | 28994 ft | 427 kts | 302° |
| 2026-05-07 10:35 | 45.20457 | 17.57631 | 29393 ft | 430 kts | 302° |
| 2026-05-07 10:36 | 45.22306 | 17.54289 | 29741 ft | 432 kts | 302° |
| 2026-05-07 10:36 | 45.24166 | 17.50924 | 30089 ft | 434 kts | 302° |
| 2026-05-07 10:36 | 45.26038 | 17.47540 | 30392 ft | 436 kts | 302° |
| 2026-05-07 10:36 | 45.27912 | 17.44157 | 30771 ft | 435 kts | 302° |
| 2026-05-07 10:37 | 45.29786 | 17.40779 | 31182 ft | 434 kts | 302° |
| 2026-05-07 10:37 | 45.31656 | 17.37411 | 31598 ft | 434 kts | 302° |
| 2026-05-07 10:37 | 45.33520 | 17.34047 | 32034 ft | 433 kts | 302° |
| 2026-05-07 10:37 | 45.35379 | 17.30681 | 32476 ft | 432 kts | 302° |
| 2026-05-07 10:38 | 45.37232 | 17.27318 | 32926 ft | 431 kts | 301° |
| 2026-05-07 10:38 | 45.39074 | 17.23971 | 33395 ft | 429 kts | 301° |
| 2026-05-07 10:38 | 45.40887 | 17.20674 | 33832 ft | 427 kts | 301° |
| 2026-05-07 10:38 | 45.42714 | 17.17345 | 34213 ft | 426 kts | 301° |
| 2026-05-07 10:39 | 45.44536 | 17.14019 | 34536 ft | 426 kts | 301° |
| 2026-05-07 10:39 | 45.46359 | 17.10688 | 34829 ft | 426 kts | 301° |
| 2026-05-07 10:39 | 45.48180 | 17.07358 | 35127 ft | 426 kts | 301° |
| 2026-05-07 10:39 | 45.50002 | 17.04019 | 35406 ft | 426 kts | 302° |
| 2026-05-07 10:40 | 45.51821 | 17.00682 | 35676 ft | 426 kts | 302° |
| 2026-05-07 10:40 | 45.53635 | 16.97345 | 35966 ft | 426 kts | 301° |
| 2026-05-07 10:40 | 45.57088 | 16.90470 | 36047 ft | 424 kts | 296° |
| 2026-05-07 10:41 | 45.60216 | 16.83319 | 36057 ft | 425 kts | 295° |
| 2026-05-07 10:41 | 45.63341 | 16.76160 | 36057 ft | 425 kts | 296° |
| 2026-05-07 10:42 | 45.66472 | 16.68993 | 36054 ft | 425 kts | 296° |
| 2026-05-07 10:42 | 45.69564 | 16.61879 | 36075 ft | 424 kts | 295° |
| 2026-05-07 10:43 | 45.72680 | 16.54684 | 36067 ft | 424 kts | 295° |
| 2026-05-07 10:43 | 45.75774 | 16.47529 | 36062 ft | 424 kts | 295° |
| 2026-05-07 10:44 | 45.78877 | 16.40329 | 36061 ft | 423 kts | 295° |
| 2026-05-07 10:44 | 45.81961 | 16.33142 | 36082 ft | 423 kts | 294° |
| 2026-05-07 10:45 | 45.85052 | 16.25937 | 36066 ft | 423 kts | 295° |
| 2026-05-07 10:45 | 45.88131 | 16.18759 | 36056 ft | 422 kts | 294° |
| 2026-05-07 10:46 | 45.91201 | 16.11571 | 36051 ft | 422 kts | 294° |
| 2026-05-07 10:46 | 45.94247 | 16.04415 | 36049 ft | 422 kts | 294° |
| 2026-05-07 10:47 | 45.97301 | 15.97220 | 36066 ft | 422 kts | 294° |
| 2026-05-07 10:47 | 46.00355 | 15.90005 | 36058 ft | 422 kts | 294° |
| 2026-05-07 10:48 | 46.03406 | 15.82782 | 36048 ft | 422 kts | 294° |
| 2026-05-07 10:48 | 46.06454 | 15.75545 | 36046 ft | 422 kts | 294° |
| 2026-05-07 10:49 | 46.09503 | 15.68295 | 36059 ft | 422 kts | 294° |
| 2026-05-07 10:49 | 46.12539 | 15.61039 | 36047 ft | 422 kts | 294° |
| 2026-05-07 10:50 | 46.15570 | 15.53783 | 36034 ft | 422 kts | 294° |
| 2026-05-07 10:50 | 46.18608 | 15.46513 | 36023 ft | 423 kts | 294° |
| 2026-05-07 10:51 | 46.21619 | 15.39278 | 36023 ft | 423 kts | 294° |
| 2026-05-07 10:51 | 46.24637 | 15.31988 | 36036 ft | 423 kts | 294° |
| 2026-05-07 10:52 | 46.27661 | 15.24674 | 36027 ft | 424 kts | 294° |
| 2026-05-07 10:52 | 46.30684 | 15.17350 | 35999 ft | 424 kts | 294° |
| 2026-05-07 10:53 | 46.33701 | 15.10024 | 36008 ft | 424 kts | 294° |
| 2026-05-07 10:53 | 46.36717 | 15.02685 | 36005 ft | 424 kts | 294° |
| 2026-05-07 10:54 | 46.39727 | 14.95322 | 36009 ft | 425 kts | 294° |
| 2026-05-07 10:54 | 46.42739 | 14.87941 | 36005 ft | 425 kts | 294° |
| 2026-05-07 10:55 | 46.45743 | 14.80548 | 35996 ft | 426 kts | 293° |
| 2026-05-07 10:55 | 46.48747 | 14.73140 | 35990 ft | 426 kts | 293° |
| 2026-05-07 10:56 | 46.51752 | 14.65725 | 36012 ft | 426 kts | 293° |
| 2026-05-07 10:56 | 46.54753 | 14.58297 | 35989 ft | 427 kts | 293° |
| 2026-05-07 10:57 | 46.57738 | 14.50896 | 35986 ft | 427 kts | 293° |
| 2026-05-07 10:57 | 46.60735 | 14.43430 | 35985 ft | 427 kts | 293° |
| 2026-05-07 10:58 | 46.63709 | 14.36000 | 35987 ft | 427 kts | 293° |
| 2026-05-07 10:58 | 46.66693 | 14.28518 | 35994 ft | 427 kts | 293° |
| 2026-05-07 10:59 | 46.69676 | 14.21038 | 35988 ft | 426 kts | 293° |
| 2026-05-07 10:59 | 46.72646 | 14.13588 | 35982 ft | 426 kts | 293° |
| 2026-05-07 11:00 | 46.75615 | 14.06084 | 35968 ft | 427 kts | 293° |
| 2026-05-07 11:00 | 46.78576 | 13.98568 | 35969 ft | 427 kts | 293° |
| 2026-05-07 11:01 | 46.81539 | 13.91044 | 35994 ft | 428 kts | 293° |
| 2026-05-07 11:01 | 46.84503 | 13.83512 | 35984 ft | 428 kts | 293° |
| 2026-05-07 11:02 | 46.87467 | 13.75960 | 35965 ft | 428 kts | 293° |
| 2026-05-07 11:02 | 46.90413 | 13.68412 | 35962 ft | 427 kts | 293° |
| 2026-05-07 11:03 | 46.93366 | 13.60841 | 35994 ft | 428 kts | 293° |
| 2026-05-07 11:03 | 46.96313 | 13.53269 | 35981 ft | 429 kts | 293° |
| 2026-05-07 11:04 | 46.99257 | 13.45658 | 35977 ft | 430 kts | 293° |
| 2026-05-07 11:04 | 47.02174 | 13.38100 | 35977 ft | 428 kts | 293° |
| 2026-05-07 11:05 | 47.05106 | 13.30482 | 35975 ft | 430 kts | 292° |
| 2026-05-07 11:05 | 47.08038 | 13.22843 | 35994 ft | 430 kts | 293° |
| 2026-05-07 11:06 | 47.10969 | 13.15198 | 35985 ft | 430 kts | 293° |
| 2026-05-07 11:06 | 47.13904 | 13.07530 | 36000 ft | 430 kts | 293° |
| 2026-05-07 11:07 | 47.16820 | 12.99868 | 35993 ft | 430 kts | 293° |
| 2026-05-07 11:07 | 47.19734 | 12.92186 | 36006 ft | 430 kts | 293° |
| 2026-05-07 11:08 | 47.22652 | 12.84503 | 36019 ft | 431 kts | 293° |
| 2026-05-07 11:08 | 47.25561 | 12.76802 | 36007 ft | 430 kts | 293° |
| 2026-05-07 11:09 | 47.28466 | 12.69082 | 36019 ft | 431 kts | 293° |
| 2026-05-07 11:09 | 47.31343 | 12.61420 | 36028 ft | 431 kts | 293° |
| 2026-05-07 11:10 | 47.34243 | 12.53690 | 36018 ft | 431 kts | 293° |
| 2026-05-07 11:10 | 47.37135 | 12.45951 | 36038 ft | 430 kts | 294° |
| 2026-05-07 11:11 | 47.40009 | 12.38227 | 35928 ft | 429 kts | 294° |
| 2026-05-07 11:11 | 47.41444 | 12.34349 | 35548 ft | 428 kts | 294° |
| 2026-05-07 11:11 | 47.42865 | 12.30505 | 35167 ft | 424 kts | 294° |
| 2026-05-07 11:12 | 47.44273 | 12.26694 | 34791 ft | 421 kts | 294° |
| 2026-05-07 11:12 | 47.45673 | 12.22908 | 34424 ft | 418 kts | 294° |
| 2026-05-07 11:12 | 47.47063 | 12.19156 | 34051 ft | 415 kts | 294° |
| 2026-05-07 11:12 | 47.48441 | 12.15431 | 33620 ft | 411 kts | 294° |
| 2026-05-07 11:13 | 47.49806 | 12.11730 | 33185 ft | 408 kts | 293° |
| 2026-05-07 11:13 | 47.51153 | 12.08067 | 32750 ft | 404 kts | 293° |
| 2026-05-07 11:13 | 47.52492 | 12.04421 | 32336 ft | 400 kts | 293° |
| 2026-05-07 11:13 | 47.53655 | 12.00715 | 31918 ft | 392 kts | 284° |
| 2026-05-07 11:14 | 47.54348 | 11.96916 | 31523 ft | 384 kts | 277° |
| 2026-05-07 11:14 | 47.54889 | 11.93000 | 31106 ft | 382 kts | 277° |
| 2026-05-07 11:14 | 47.55426 | 11.89164 | 30709 ft | 379 kts | 277° |
| 2026-05-07 11:14 | 47.55957 | 11.85409 | 30322 ft | 377 kts | 277° |
| 2026-05-07 11:15 | 47.56499 | 11.81568 | 29899 ft | 374 kts | 277° |
| 2026-05-07 11:15 | 47.57019 | 11.77869 | 29454 ft | 371 kts | 278° |
| 2026-05-07 11:15 | 47.57538 | 11.74150 | 28998 ft | 369 kts | 278° |
| 2026-05-07 11:15 | 47.58058 | 11.70418 | 28549 ft | 367 kts | 278° |
| 2026-05-07 11:16 | 47.58572 | 11.66725 | 28100 ft | 365 kts | 279° |
| 2026-05-07 11:16 | 47.59082 | 11.63038 | 27661 ft | 363 kts | 279° |
| 2026-05-07 11:16 | 47.59581 | 11.59387 | 27229 ft | 361 kts | 279° |
| 2026-05-07 11:16 | 47.60077 | 11.55754 | 26803 ft | 359 kts | 279° |
| 2026-05-07 11:17 | 47.60569 | 11.52141 | 26389 ft | 357 kts | 279° |
| 2026-05-07 11:17 | 47.61059 | 11.48545 | 25976 ft | 355 kts | 279° |
| 2026-05-07 11:17 | 47.61543 | 11.44974 | 25580 ft | 352 kts | 279° |
| 2026-05-07 11:17 | 47.61862 | 11.42618 | 25299 ft | 351 kts | 279° |
| 2026-05-07 11:18 | 47.62340 | 11.39084 | 24905 ft | 349 kts | 279° |
| 2026-05-07 11:18 | 47.62797 | 11.35555 | 24510 ft | 347 kts | 279° |
| 2026-05-07 11:18 | 47.63229 | 11.32040 | 24125 ft | 347 kts | 279° |
| 2026-05-07 11:18 | 47.63649 | 11.28534 | 23742 ft | 345 kts | 279° |
| 2026-05-07 11:19 | 47.64064 | 11.25031 | 23336 ft | 344 kts | 279° |
| 2026-05-07 11:19 | 47.64480 | 11.21541 | 22884 ft | 342 kts | 279° |
| 2026-05-07 11:19 | 47.64896 | 11.18074 | 22446 ft | 340 kts | 279° |
| 2026-05-07 11:19 | 47.65307 | 11.14635 | 22013 ft | 338 kts | 279° |
| 2026-05-07 11:20 | 47.65715 | 11.11219 | 21583 ft | 336 kts | 279° |
| 2026-05-07 11:20 | 47.66122 | 11.07817 | 21162 ft | 333 kts | 279° |
| 2026-05-07 11:20 | 47.66522 | 11.04443 | 20747 ft | 331 kts | 279° |
| 2026-05-07 11:20 | 47.66920 | 11.01090 | 20339 ft | 329 kts | 279° |
| 2026-05-07 11:21 | 47.67317 | 10.97745 | 19936 ft | 327 kts | 279° |
| 2026-05-07 11:21 | 47.67704 | 10.94474 | 19559 ft | 325 kts | 279° |
| 2026-05-07 11:21 | 47.68096 | 10.91181 | 19158 ft | 323 kts | 279° |
| 2026-05-07 11:21 | 47.68482 | 10.87915 | 18769 ft | 321 kts | 279° |
| 2026-05-07 11:22 | 47.68861 | 10.84703 | 18391 ft | 319 kts | 278° |
| 2026-05-07 11:22 | 47.69245 | 10.81431 | 17970 ft | 316 kts | 278° |
| 2026-05-07 11:22 | 47.69619 | 10.78219 | 17586 ft | 314 kts | 278° |
| 2026-05-07 11:22 | 47.69990 | 10.75036 | 17183 ft | 312 kts | 278° |
| 2026-05-07 11:23 | 47.70356 | 10.71878 | 16786 ft | 310 kts | 278° |
| 2026-05-07 11:23 | 47.70719 | 10.68742 | 16392 ft | 308 kts | 278° |
| 2026-05-07 11:23 | 47.71078 | 10.65641 | 16008 ft | 306 kts | 278° |
| 2026-05-07 11:23 | 47.71439 | 10.62513 | 15628 ft | 304 kts | 278° |
| 2026-05-07 11:24 | 47.71795 | 10.59413 | 15247 ft | 303 kts | 278° |
| 2026-05-07 11:24 | 47.72150 | 10.56335 | 14877 ft | 302 kts | 278° |
| 2026-05-07 11:24 | 47.72500 | 10.53305 | 14525 ft | 300 kts | 278° |
| 2026-05-07 11:24 | 47.72854 | 10.50218 | 14150 ft | 299 kts | 278° |
| 2026-05-07 11:25 | 47.73197 | 10.47212 | 13793 ft | 298 kts | 278° |
| 2026-05-07 11:25 | 47.73540 | 10.44180 | 13388 ft | 297 kts | 278° |
| 2026-05-07 11:25 | 47.73879 | 10.41160 | 12985 ft | 296 kts | 278° |
| 2026-05-07 11:25 | 47.74495 | 10.38255 | 12582 ft | 298 kts | 296° |
| 2026-05-07 11:26 | 47.75810 | 10.35869 | 12205 ft | 303 kts | 319° |
| 2026-05-07 11:26 | 47.77673 | 10.34389 | 11820 ft | 308 kts | 341° |
| 2026-05-07 11:26 | 47.79795 | 10.33817 | 11441 ft | 310 kts | 348° |
| 2026-05-07 11:26 | 47.81930 | 10.33352 | 11068 ft | 311 kts | 348° |
| 2026-05-07 11:27 | 47.84050 | 10.32899 | 10688 ft | 302 kts | 348° |
| 2026-05-07 11:27 | 47.86091 | 10.32464 | 10315 ft | 294 kts | 348° |
| 2026-05-07 11:27 | 47.88131 | 10.32428 | 9953 ft | 292 kts | 6° |
| 2026-05-07 11:27 | 47.90049 | 10.33387 | 9559 ft | 294 kts | 26° |
| 2026-05-07 11:28 | 47.91648 | 10.35258 | 9161 ft | 297 kts | 46° |
| 2026-05-07 11:28 | 47.92810 | 10.37827 | 8765 ft | 298 kts | 58° |
| 2026-05-07 11:28 | 47.93859 | 10.40488 | 8385 ft | 296 kts | 58° |
| 2026-05-07 11:28 | 47.94901 | 10.43134 | 8024 ft | 295 kts | 57° |
| 2026-05-07 11:29 | 47.95942 | 10.45778 | 7660 ft | 294 kts | 58° |
| 2026-05-07 11:29 | 47.96971 | 10.48392 | 7327 ft | 290 kts | 56° |
| 2026-05-07 11:29 | 47.98290 | 10.50596 | 6980 ft | 282 kts | 31° |
| 2026-05-07 11:29 | 48.00059 | 10.51694 | 6630 ft | 272 kts | 5° |
| 2026-05-07 11:30 | 48.01884 | 10.51576 | 6279 ft | 259 kts | 341° |
| 2026-05-07 11:30 | 48.03472 | 10.50471 | 5936 ft | 245 kts | 327° |
| 2026-05-07 11:30 | 48.04880 | 10.49233 | 5659 ft | 234 kts | 327° |
| 2026-05-07 11:30 | 48.06205 | 10.47910 | 5375 ft | 220 kts | 310° |
| 2026-05-07 11:31 | 48.06910 | 10.46005 | 5094 ft | 206 kts | 279° |
| 2026-05-07 11:31 | 48.06822 | 10.43923 | 4812 ft | 197 kts | 249° |
| 2026-05-07 11:31 | 48.06215 | 10.42168 | 4563 ft | 187 kts | 242° |
| 2026-05-07 11:31 | 48.05554 | 10.40548 | 4285 ft | 178 kts | 240° |
| 2026-05-07 11:32 | 48.04322 | 10.37647 | 3949 ft | 149 kts | 241° |
| 2026-05-07 11:32 | 48.03802 | 10.36362 | 3786 ft | 142 kts | 242° |
| 2026-05-07 11:32 | 48.03301 | 10.35107 | 3604 ft | 140 kts | 242° |
| 2026-05-07 11:33 | 48.02808 | 10.33867 | 3433 ft | 137 kts | 242° |
| 2026-05-07 11:33 | 48.02319 | 10.32631 | 3241 ft | 138 kts | 243° |
| 2026-05-07 11:33 | 48.01833 | 10.31405 | 3064 ft | 137 kts | 241° |
| 2026-05-07 11:33 | 48.01347 | 10.30176 | 2871 ft | 137 kts | 240° |
| 2026-05-07 11:34 | 48.00871 | 10.28973 | 2687 ft | 134 kts | 240° |
| 2026-05-07 11:34 | 48.00384 | 10.27744 | 2508 ft | 137 kts | 239° |
| 2026-05-07 11:34 | 47.99901 | 10.26525 | 2310 ft | 136 kts | 238° |
| 2026-05-07 11:34 | 47.99423 | 10.25318 | 2113 ft | 134 kts | 239° |
| 2026-05-07 11:35 | 47.98970 | 10.24217 | 2070 ft | 99 kts | 235° |
| 2026-05-07 11:35 | 47.98777 | 10.23703 | 2074 ft | 31 kts | 243° |
| 2026-05-07 11:35 | 47.98648 | 10.23370 | 2079 ft | 38 kts | 239° |
| 2026-05-07 11:35 | 47.98517 | 10.23040 | 2081 ft | 37 kts | 240° |
| 2026-05-07 11:36 | 47.98397 | 10.22733 | 2086 ft | 33 kts | 239° |
| 2026-05-07 11:36 | 47.98380 | 10.22562 | 2088 ft | 15 kts | 321° |
| 2026-05-07 11:36 | 47.98451 | 10.22580 | 2085 ft | 13 kts | 50° |
| 2026-05-07 11:36 | 47.98512 | 10.22698 | 2083 ft | 15 kts | 35° |
| 2026-05-07 11:37 | 47.98621 | 10.22713 | 2080 ft | 16 kts | 359° |
| 2026-05-07 11:37 | 47.98695 | 10.22759 | 2078 ft | 12 kts | 65° |
| 2026-05-07 11:37 | 47.98705 | 10.22860 | 2075 ft | 4 kts | 82° |
| 2026-05-07 11:37 | 47.98721 | 10.22863 | 2076 ft | 3 kts | 346° |
| 2026-05-07 11:38 | 47.98747 | 10.22860 | 2077 ft | 0 kts | 6° |
| 2026-05-07 11:38 | 47.98747 | 10.22861 | 2077 ft | 0 kts | 18° |
| 2026-05-07 11:38 | 47.98750 | 10.22867 | 2077 ft | 2 kts | 42° |
| 2026-05-07 11:38 | 47.98757 | 10.22877 | 2077 ft | 2 kts | 45° |
| 2026-05-07 11:39 | 47.98760 | 10.22883 | 2073 ft | 1 kts | 47° |